sensor_id;sensor_type;location;lat;lon;timestamp;P1;durP1;ratioP1;P2;durP2;ratioP2
5710;SDS011;61291;52.524;13.422;2023-05-07T00:01:31;68.10;;;63.07;;
5710;SDS011;61291;52.524;13.422;2023-05-07T00:03:56;70.40;;;65.53;;
5710;SDS011;61291;52.524;13.422;2023-05-07T00:06:22;74.13;;;68.83;;
5710;SDS011;61291;52.524;13.422;2023-05-07T00:08:48;73.37;;;67.60;;
5710;SDS011;61291;52.524;13.422;2023-05-07T00:11:13;71.63;;;65.97;;
5710;SDS011;61291;52.524;13.422;2023-05-07T00:13:39;70.67;;;65.23;;
5710;SDS011;61291;52.524;13.422;2023-05-07T00:16:05;71.30;;;66.00;;
5710;SDS011;61291;52.524;13.422;2023-05-07T00:18:30;72.27;;;67.00;;
5710;SDS011;61291;52.524;13.422;2023-05-07T00:20:56;70.13;;;64.93;;
5710;SDS011;61291;52.524;13.422;2023-05-07T00:23:22;71.40;;;66.17;;
5710;SDS011;61291;52.524;13.422;2023-05-07T00:25:48;68.03;;;63.13;;
5710;SDS011;61291;52.524;13.422;2023-05-07T00:28:13;71.73;;;66.60;;
5710;SDS011;61291;52.524;13.422;2023-05-07T00:30:38;74.83;;;69.10;;
5710;SDS011;61291;52.524;13.422;2023-05-07T00:33:04;74.03;;;68.93;;
5710;SDS011;61291;52.524;13.422;2023-05-07T00:35:30;73.47;;;68.20;;
5710;SDS011;61291;52.524;13.422;2023-05-07T00:37:55;74.67;;;69.47;;
5710;SDS011;61291;52.524;13.422;2023-05-07T00:40:21;72.40;;;67.23;;
5710;SDS011;61291;52.524;13.422;2023-05-07T00:42:46;72.10;;;66.77;;
5710;SDS011;61291;52.524;13.422;2023-05-07T00:45:13;73.38;;;68.03;;
5710;SDS011;61291;52.524;13.422;2023-05-07T00:47:39;70.07;;;64.80;;
5710;SDS011;61291;52.524;13.422;2023-05-07T00:50:06;71.60;;;66.53;;
5710;SDS011;61291;52.524;13.422;2023-05-07T00:52:32;76.07;;;70.50;;
5710;SDS011;61291;52.524;13.422;2023-05-07T00:54:59;72.53;;;67.17;;
5710;SDS011;61291;52.524;13.422;2023-05-07T00:57:29;70.67;;;65.77;;
5710;SDS011;61291;52.524;13.422;2023-05-07T00:59:57;67.47;;;62.77;;
5710;SDS011;61291;52.524;13.422;2023-05-07T01:02:22;69.77;;;64.77;;
5710;SDS011;61291;52.524;13.422;2023-05-07T01:04:48;71.30;;;66.33;;
5710;SDS011;61291;52.524;13.422;2023-05-07T01:07:13;71.10;;;66.00;;
5710;SDS011;61291;52.524;13.422;2023-05-07T01:09:39;73.70;;;67.97;;
5710;SDS011;61291;52.524;13.422;2023-05-07T01:12:05;70.40;;;65.47;;
5710;SDS011;61291;52.524;13.422;2023-05-07T01:14:32;70.27;;;65.33;;
5710;SDS011;61291;52.524;13.422;2023-05-07T01:16:58;75.07;;;69.37;;
5710;SDS011;61291;52.524;13.422;2023-05-07T01:19:23;71.27;;;66.43;;
5710;SDS011;61291;52.524;13.422;2023-05-07T01:21:49;69.10;;;63.93;;
5710;SDS011;61291;52.524;13.422;2023-05-07T01:24:16;68.57;;;63.67;;
5710;SDS011;61291;52.524;13.422;2023-05-07T01:26:43;70.87;;;65.67;;
5710;SDS011;61291;52.524;13.422;2023-05-07T01:29:09;69.20;;;64.40;;
5710;SDS011;61291;52.524;13.422;2023-05-07T01:31:35;70.80;;;66.10;;
5710;SDS011;61291;52.524;13.422;2023-05-07T01:34:02;68.17;;;63.43;;
5710;SDS011;61291;52.524;13.422;2023-05-07T01:36:32;72.47;;;67.47;;
5710;SDS011;61291;52.524;13.422;2023-05-07T01:38:58;69.00;;;64.10;;
5710;SDS011;61291;52.524;13.422;2023-05-07T01:41:24;69.60;;;64.73;;
5710;SDS011;61291;52.524;13.422;2023-05-07T01:43:50;70.93;;;65.60;;
5710;SDS011;61291;52.524;13.422;2023-05-07T01:46:17;66.93;;;62.33;;
5710;SDS011;61291;52.524;13.422;2023-05-07T01:48:43;69.67;;;64.37;;
5710;SDS011;61291;52.524;13.422;2023-05-07T01:51:10;70.87;;;65.80;;
5710;SDS011;61291;52.524;13.422;2023-05-07T01:53:37;70.30;;;65.33;;
5710;SDS011;61291;52.524;13.422;2023-05-07T01:56:02;69.90;;;64.77;;
5710;SDS011;61291;52.524;13.422;2023-05-07T01:58:28;70.00;;;65.20;;
5710;SDS011;61291;52.524;13.422;2023-05-07T02:00:53;68.37;;;63.60;;
5710;SDS011;61291;52.524;13.422;2023-05-07T02:03:19;68.53;;;63.37;;
5710;SDS011;61291;52.524;13.422;2023-05-07T02:05:44;69.33;;;64.30;;
5710;SDS011;61291;52.524;13.422;2023-05-07T02:08:10;71.03;;;65.57;;
5710;SDS011;61291;52.524;13.422;2023-05-07T02:10:35;72.03;;;66.60;;
5710;SDS011;61291;52.524;13.422;2023-05-07T02:13:01;71.40;;;65.90;;
5710;SDS011;61291;52.524;13.422;2023-05-07T02:15:26;71.33;;;66.20;;
5710;SDS011;61291;52.524;13.422;2023-05-07T02:17:59;69.73;;;65.00;;
5710;SDS011;61291;52.524;13.422;2023-05-07T02:20:29;68.13;;;63.23;;
5710;SDS011;61291;52.524;13.422;2023-05-07T02:22:54;74.27;;;68.30;;
5710;SDS011;61291;52.524;13.422;2023-05-07T02:25:20;66.50;;;61.90;;
5710;SDS011;61291;52.524;13.422;2023-05-07T02:27:45;70.63;;;65.70;;
5710;SDS011;61291;52.524;13.422;2023-05-07T02:30:11;68.93;;;64.03;;
5710;SDS011;61291;52.524;13.422;2023-05-07T02:32:37;68.83;;;63.80;;
5710;SDS011;61291;52.524;13.422;2023-05-07T02:35:02;65.97;;;61.47;;
5710;SDS011;61291;52.524;13.422;2023-05-07T02:37:28;56.93;;;52.73;;
5710;SDS011;61291;52.524;13.422;2023-05-07T02:39:53;76.87;;;71.30;;
5710;SDS011;61291;52.524;13.422;2023-05-07T02:42:19;69.77;;;64.97;;
5710;SDS011;61291;52.524;13.422;2023-05-07T02:44:44;65.97;;;60.83;;
5710;SDS011;61291;52.524;13.422;2023-05-07T02:47:09;66.27;;;60.90;;
5710;SDS011;61291;52.524;13.422;2023-05-07T02:49:37;69.63;;;64.53;;
5710;SDS011;61291;52.524;13.422;2023-05-07T02:52:03;66.87;;;62.17;;
5710;SDS011;61291;52.524;13.422;2023-05-07T02:54:28;66.43;;;61.30;;
5710;SDS011;61291;52.524;13.422;2023-05-07T02:56:54;66.40;;;61.57;;
5710;SDS011;61291;52.524;13.422;2023-05-07T02:59:19;65.60;;;61.10;;
5710;SDS011;61291;52.524;13.422;2023-05-07T03:01:45;69.13;;;64.43;;
5710;SDS011;61291;52.524;13.422;2023-05-07T03:04:10;66.97;;;62.40;;
5710;SDS011;61291;52.524;13.422;2023-05-07T03:06:36;66.43;;;61.87;;
5710;SDS011;61291;52.524;13.422;2023-05-07T03:09:01;69.70;;;64.93;;
5710;SDS011;61291;52.524;13.422;2023-05-07T03:11:27;67.10;;;62.33;;
5710;SDS011;61291;52.524;13.422;2023-05-07T03:13:53;65.33;;;60.70;;
5710;SDS011;61291;52.524;13.422;2023-05-07T03:16:18;65.10;;;60.57;;
5710;SDS011;61291;52.524;13.422;2023-05-07T03:18:44;65.73;;;61.17;;
5710;SDS011;61291;52.524;13.422;2023-05-07T03:21:10;67.33;;;62.73;;
5710;SDS011;61291;52.524;13.422;2023-05-07T03:23:35;65.40;;;61.00;;
5710;SDS011;61291;52.524;13.422;2023-05-07T03:26:01;66.87;;;62.40;;
5710;SDS011;61291;52.524;13.422;2023-05-07T03:28:26;69.17;;;64.47;;
5710;SDS011;61291;52.524;13.422;2023-05-07T03:30:51;68.40;;;63.97;;
5710;SDS011;61291;52.524;13.422;2023-05-07T03:33:17;71.13;;;66.10;;
5710;SDS011;61291;52.524;13.422;2023-05-07T03:35:43;72.60;;;67.40;;
5710;SDS011;61291;52.524;13.422;2023-05-07T03:38:08;72.47;;;67.20;;
5710;SDS011;61291;52.524;13.422;2023-05-07T03:40:33;70.60;;;65.80;;
5710;SDS011;61291;52.524;13.422;2023-05-07T03:42:59;74.13;;;69.07;;
5710;SDS011;61291;52.524;13.422;2023-05-07T03:45:25;71.20;;;66.10;;
5710;SDS011;61291;52.524;13.422;2023-05-07T03:47:51;67.03;;;62.40;;
5710;SDS011;61291;52.524;13.422;2023-05-07T03:50:16;64.50;;;60.10;;
5710;SDS011;61291;52.524;13.422;2023-05-07T03:52:42;72.43;;;66.20;;
5710;SDS011;61291;52.524;13.422;2023-05-07T03:55:08;70.97;;;65.80;;
5710;SDS011;61291;52.524;13.422;2023-05-07T03:57:33;65.97;;;61.37;;
5710;SDS011;61291;52.524;13.422;2023-05-07T03:59:59;66.80;;;62.40;;
5710;SDS011;61291;52.524;13.422;2023-05-07T04:02:24;64.13;;;59.83;;
5710;SDS011;61291;52.524;13.422;2023-05-07T04:04:49;64.60;;;60.20;;
5710;SDS011;61291;52.524;13.422;2023-05-07T04:07:15;68.53;;;63.67;;
5710;SDS011;61291;52.524;13.422;2023-05-07T04:09:41;70.47;;;64.63;;
5710;SDS011;61291;52.524;13.422;2023-05-07T04:12:06;65.67;;;61.07;;
5710;SDS011;61291;52.524;13.422;2023-05-07T04:14:32;65.53;;;61.07;;
5710;SDS011;61291;52.524;13.422;2023-05-07T04:16:58;69.47;;;64.17;;
5710;SDS011;61291;52.524;13.422;2023-05-07T04:19:24;67.23;;;62.20;;
5710;SDS011;61291;52.524;13.422;2023-05-07T04:21:49;66.70;;;62.03;;
5710;SDS011;61291;52.524;13.422;2023-05-07T04:24:15;65.03;;;60.10;;
5710;SDS011;61291;52.524;13.422;2023-05-07T04:26:41;66.77;;;61.47;;
5710;SDS011;61291;52.524;13.422;2023-05-07T04:29:06;63.63;;;58.93;;
5710;SDS011;61291;52.524;13.422;2023-05-07T04:31:32;65.40;;;60.90;;
5710;SDS011;61291;52.524;13.422;2023-05-07T04:33:57;64.23;;;59.63;;
5710;SDS011;61291;52.524;13.422;2023-05-07T04:36:22;67.60;;;62.50;;
5710;SDS011;61291;52.524;13.422;2023-05-07T04:38:51;66.33;;;61.63;;
5710;SDS011;61291;52.524;13.422;2023-05-07T04:41:16;64.20;;;59.73;;
5710;SDS011;61291;52.524;13.422;2023-05-07T04:43:42;65.90;;;61.00;;
5710;SDS011;61291;52.524;13.422;2023-05-07T04:46:07;64.77;;;59.93;;
5710;SDS011;61291;52.524;13.422;2023-05-07T04:48:33;67.53;;;62.93;;
5710;SDS011;61291;52.524;13.422;2023-05-07T04:50:58;67.57;;;62.67;;
5710;SDS011;61291;52.524;13.422;2023-05-07T04:53:24;67.50;;;63.00;;
5710;SDS011;61291;52.524;13.422;2023-05-07T04:55:54;65.23;;;60.20;;
5710;SDS011;61291;52.524;13.422;2023-05-07T04:58:20;66.33;;;61.77;;
5710;SDS011;61291;52.524;13.422;2023-05-07T05:00:46;66.47;;;61.87;;
5710;SDS011;61291;52.524;13.422;2023-05-07T05:03:11;64.67;;;60.27;;
5710;SDS011;61291;52.524;13.422;2023-05-07T05:05:37;69.80;;;64.90;;
5710;SDS011;61291;52.524;13.422;2023-05-07T05:08:02;69.20;;;64.30;;
5710;SDS011;61291;52.524;13.422;2023-05-07T05:10:28;70.60;;;65.47;;
5710;SDS011;61291;52.524;13.422;2023-05-07T05:12:54;69.83;;;65.03;;
5710;SDS011;61291;52.524;13.422;2023-05-07T05:15:19;66.77;;;62.17;;
5710;SDS011;61291;52.524;13.422;2023-05-07T05:17:45;63.27;;;59.07;;
5710;SDS011;61291;52.524;13.422;2023-05-07T05:20:10;65.93;;;61.37;;
5710;SDS011;61291;52.524;13.422;2023-05-07T05:22:36;61.60;;;57.50;;
5710;SDS011;61291;52.524;13.422;2023-05-07T05:25:02;64.07;;;59.90;;
5710;SDS011;61291;52.524;13.422;2023-05-07T05:27:28;67.50;;;62.37;;
5710;SDS011;61291;52.524;13.422;2023-05-07T05:29:54;62.17;;;57.97;;
5710;SDS011;61291;52.524;13.422;2023-05-07T05:32:19;62.33;;;57.87;;
5710;SDS011;61291;52.524;13.422;2023-05-07T05:34:45;64.50;;;60.07;;
5710;SDS011;61291;52.524;13.422;2023-05-07T05:37:10;58.83;;;54.65;;
5710;SDS011;61291;52.524;13.422;2023-05-07T05:39:36;65.93;;;61.20;;
5710;SDS011;61291;52.524;13.422;2023-05-07T05:42:01;67.57;;;62.23;;
5710;SDS011;61291;52.524;13.422;2023-05-07T05:44:27;66.93;;;62.20;;
5710;SDS011;61291;52.524;13.422;2023-05-07T05:46:52;67.60;;;62.70;;
5710;SDS011;61291;52.524;13.422;2023-05-07T05:49:20;67.40;;;62.70;;
5710;SDS011;61291;52.524;13.422;2023-05-07T05:51:46;68.83;;;63.87;;
5710;SDS011;61291;52.524;13.422;2023-05-07T05:54:11;67.00;;;62.33;;
5710;SDS011;61291;52.524;13.422;2023-05-07T05:56:37;68.40;;;63.60;;
5710;SDS011;61291;52.524;13.422;2023-05-07T05:59:03;63.83;;;59.50;;
5710;SDS011;61291;52.524;13.422;2023-05-07T06:01:28;65.90;;;61.30;;
5710;SDS011;61291;52.524;13.422;2023-05-07T06:03:54;64.20;;;59.80;;
5710;SDS011;61291;52.524;13.422;2023-05-07T06:06:19;71.43;;;66.03;;
5710;SDS011;61291;52.524;13.422;2023-05-07T06:08:45;67.00;;;61.83;;
5710;SDS011;61291;52.524;13.422;2023-05-07T06:11:10;70.70;;;64.97;;
5710;SDS011;61291;52.524;13.422;2023-05-07T06:13:36;66.93;;;62.30;;
5710;SDS011;61291;52.524;13.422;2023-05-07T06:16:01;60.70;;;56.50;;
5710;SDS011;61291;52.524;13.422;2023-05-07T06:18:27;68.90;;;63.50;;
5710;SDS011;61291;52.524;13.422;2023-05-07T06:20:52;66.10;;;61.53;;
5710;SDS011;61291;52.524;13.422;2023-05-07T06:23:18;67.93;;;63.33;;
5710;SDS011;61291;52.524;13.422;2023-05-07T06:25:49;66.63;;;62.07;;
5710;SDS011;61291;52.524;13.422;2023-05-07T06:28:15;69.53;;;64.63;;
5710;SDS011;61291;52.524;13.422;2023-05-07T06:30:41;66.20;;;61.80;;
5710;SDS011;61291;52.524;13.422;2023-05-07T06:33:07;65.53;;;61.13;;
5710;SDS011;61291;52.524;13.422;2023-05-07T06:35:32;66.47;;;61.97;;
5710;SDS011;61291;52.524;13.422;2023-05-07T06:37:59;68.10;;;63.30;;
5710;SDS011;61291;52.524;13.422;2023-05-07T06:40:25;65.27;;;60.50;;
5710;SDS011;61291;52.524;13.422;2023-05-07T06:42:50;61.80;;;57.40;;
5710;SDS011;61291;52.524;13.422;2023-05-07T06:45:16;57.87;;;53.60;;
5710;SDS011;61291;52.524;13.422;2023-05-07T06:47:41;60.27;;;56.20;;
5710;SDS011;61291;52.524;13.422;2023-05-07T06:50:07;62.37;;;57.77;;
5710;SDS011;61291;52.524;13.422;2023-05-07T06:52:33;68.13;;;62.80;;
5710;SDS011;61291;52.524;13.422;2023-05-07T06:54:59;65.20;;;60.40;;
5710;SDS011;61291;52.524;13.422;2023-05-07T06:57:24;67.33;;;62.27;;
5710;SDS011;61291;52.524;13.422;2023-05-07T06:59:50;64.87;;;60.57;;
5710;SDS011;61291;52.524;13.422;2023-05-07T07:02:15;62.93;;;58.53;;
5710;SDS011;61291;52.524;13.422;2023-05-07T07:04:41;67.07;;;62.47;;
5710;SDS011;61291;52.524;13.422;2023-05-07T07:07:06;67.03;;;62.03;;
5710;SDS011;61291;52.524;13.422;2023-05-07T07:09:32;68.73;;;63.73;;
5710;SDS011;61291;52.524;13.422;2023-05-07T07:11:58;69.07;;;63.87;;
5710;SDS011;61291;52.524;13.422;2023-05-07T07:14:23;68.93;;;63.93;;
5710;SDS011;61291;52.524;13.422;2023-05-07T07:16:49;63.77;;;59.17;;
5710;SDS011;61291;52.524;13.422;2023-05-07T07:19:14;74.03;;;68.63;;
5710;SDS011;61291;52.524;13.422;2023-05-07T07:21:41;72.97;;;67.57;;
5710;SDS011;61291;52.524;13.422;2023-05-07T07:24:06;68.83;;;63.93;;
5710;SDS011;61291;52.524;13.422;2023-05-07T07:26:32;69.23;;;64.00;;
5710;SDS011;61291;52.524;13.422;2023-05-07T07:28:57;68.33;;;63.23;;
5710;SDS011;61291;52.524;13.422;2023-05-07T07:31:23;69.83;;;64.60;;
5710;SDS011;61291;52.524;13.422;2023-05-07T07:33:48;72.40;;;66.77;;
5710;SDS011;61291;52.524;13.422;2023-05-07T07:36:15;72.00;;;66.47;;
5710;SDS011;61291;52.524;13.422;2023-05-07T07:38:41;73.80;;;68.47;;
5710;SDS011;61291;52.524;13.422;2023-05-07T07:41:09;71.80;;;66.97;;
5710;SDS011;61291;52.524;13.422;2023-05-07T07:43:35;70.10;;;65.30;;
5710;SDS011;61291;52.524;13.422;2023-05-07T07:46:01;64.40;;;59.90;;
5710;SDS011;61291;52.524;13.422;2023-05-07T07:48:26;66.37;;;61.57;;
5710;SDS011;61291;52.524;13.422;2023-05-07T07:50:51;65.80;;;61.17;;
5710;SDS011;61291;52.524;13.422;2023-05-07T07:53:17;65.13;;;60.23;;
5710;SDS011;61291;52.524;13.422;2023-05-07T07:55:43;66.43;;;61.53;;
5710;SDS011;61291;52.524;13.422;2023-05-07T07:58:09;67.10;;;62.20;;
5710;SDS011;61291;52.524;13.422;2023-05-07T08:00:35;63.53;;;59.13;;
5710;SDS011;61291;52.524;13.422;2023-05-07T08:03:01;64.67;;;59.87;;
5710;SDS011;61291;52.524;13.422;2023-05-07T08:05:28;62.10;;;57.90;;
5710;SDS011;61291;52.524;13.422;2023-05-07T08:07:53;63.60;;;59.10;;
5710;SDS011;61291;52.524;13.422;2023-05-07T08:10:19;64.17;;;59.43;;
5710;SDS011;61291;52.524;13.422;2023-05-07T08:12:50;63.63;;;59.20;;
5710;SDS011;61291;52.524;13.422;2023-05-07T08:15:16;67.53;;;62.73;;
5710;SDS011;61291;52.524;13.422;2023-05-07T08:17:42;65.83;;;61.13;;
5710;SDS011;61291;52.524;13.422;2023-05-07T08:20:08;66.30;;;61.37;;
5710;SDS011;61291;52.524;13.422;2023-05-07T08:22:34;61.40;;;56.93;;
5710;SDS011;61291;52.524;13.422;2023-05-07T08:25:00;60.53;;;56.43;;
5710;SDS011;61291;52.524;13.422;2023-05-07T08:27:26;63.37;;;58.87;;
5710;SDS011;61291;52.524;13.422;2023-05-07T08:29:51;64.50;;;59.80;;
5710;SDS011;61291;52.524;13.422;2023-05-07T08:32:17;65.93;;;61.07;;
5710;SDS011;61291;52.524;13.422;2023-05-07T08:34:42;66.80;;;62.10;;
5710;SDS011;61291;52.524;13.422;2023-05-07T08:37:08;64.55;;;59.95;;
5710;SDS011;61291;52.524;13.422;2023-05-07T08:39:33;61.73;;;57.27;;
5710;SDS011;61291;52.524;13.422;2023-05-07T08:42:00;66.83;;;62.13;;
5710;SDS011;61291;52.524;13.422;2023-05-07T08:44:27;67.07;;;62.20;;
5710;SDS011;61291;52.524;13.422;2023-05-07T08:46:57;64.40;;;59.70;;
5710;SDS011;61291;52.524;13.422;2023-05-07T08:49:25;59.43;;;55.53;;
5710;SDS011;61291;52.524;13.422;2023-05-07T08:51:50;60.83;;;56.60;;
5710;SDS011;61291;52.524;13.422;2023-05-07T08:54:16;59.90;;;55.60;;
5710;SDS011;61291;52.524;13.422;2023-05-07T08:56:43;56.50;;;52.80;;
5710;SDS011;61291;52.524;13.422;2023-05-07T08:59:08;55.30;;;51.60;;
5710;SDS011;61291;52.524;13.422;2023-05-07T09:01:34;58.20;;;54.50;;
5710;SDS011;61291;52.524;13.422;2023-05-07T09:04:00;64.90;;;60.30;;
5710;SDS011;61291;52.524;13.422;2023-05-07T09:06:26;58.80;;;55.07;;
5710;SDS011;61291;52.524;13.422;2023-05-07T09:08:52;60.77;;;56.47;;
5710;SDS011;61291;52.524;13.422;2023-05-07T09:11:20;58.60;;;54.22;;
5710;SDS011;61291;52.524;13.422;2023-05-07T09:13:47;60.60;;;56.57;;
5710;SDS011;61291;52.524;13.422;2023-05-07T09:16:13;60.03;;;55.40;;
5710;SDS011;61291;52.524;13.422;2023-05-07T09:18:41;64.17;;;59.77;;
5710;SDS011;61291;52.524;13.422;2023-05-07T09:21:11;65.93;;;61.60;;
5710;SDS011;61291;52.524;13.422;2023-05-07T09:23:40;66.33;;;61.53;;
5710;SDS011;61291;52.524;13.422;2023-05-07T09:26:06;69.57;;;64.50;;
5710;SDS011;61291;52.524;13.422;2023-05-07T09:28:37;66.53;;;62.03;;
5710;SDS011;61291;52.524;13.422;2023-05-07T09:31:05;60.90;;;56.70;;
5710;SDS011;61291;52.524;13.422;2023-05-07T09:33:30;64.73;;;59.53;;
5710;SDS011;61291;52.524;13.422;2023-05-07T09:35:56;61.50;;;57.40;;
5710;SDS011;61291;52.524;13.422;2023-05-07T09:38:21;66.13;;;60.27;;
5710;SDS011;61291;52.524;13.422;2023-05-07T09:40:47;61.90;;;57.50;;
5710;SDS011;61291;52.524;13.422;2023-05-07T09:43:36;69.00;;;64.30;;
5710;SDS011;61291;52.524;13.422;2023-05-07T09:46:05;70.00;;;65.10;;
5710;SDS011;61291;52.524;13.422;2023-05-07T09:48:39;61.57;;;56.70;;
5710;SDS011;61291;52.524;13.422;2023-05-07T09:51:16;62.90;;;58.70;;
5710;SDS011;61291;52.524;13.422;2023-05-07T09:54:16;67.27;;;62.53;;
5710;SDS011;61291;52.524;13.422;2023-05-07T09:56:43;66.47;;;62.07;;
5710;SDS011;61291;52.524;13.422;2023-05-07T09:59:10;66.50;;;62.17;;
5710;SDS011;61291;52.524;13.422;2023-05-07T10:01:38;61.47;;;57.57;;
5710;SDS011;61291;52.524;13.422;2023-05-07T10:04:05;63.90;;;59.13;;
5710;SDS011;61291;52.524;13.422;2023-05-07T10:06:33;62.67;;;58.40;;
5710;SDS011;61291;52.524;13.422;2023-05-07T10:08:59;63.97;;;59.67;;
5710;SDS011;61291;52.524;13.422;2023-05-07T10:11:25;62.93;;;58.53;;
5710;SDS011;61291;52.524;13.422;2023-05-07T10:13:52;65.03;;;60.70;;
5710;SDS011;61291;52.524;13.422;2023-05-07T10:16:18;59.83;;;55.73;;
5710;SDS011;61291;52.524;13.422;2023-05-07T10:18:44;60.40;;;56.60;;
5710;SDS011;61291;52.524;13.422;2023-05-07T10:21:11;60.63;;;56.63;;
5710;SDS011;61291;52.524;13.422;2023-05-07T10:23:55;60.60;;;56.30;;
5710;SDS011;61291;52.524;13.422;2023-05-07T10:26:30;61.03;;;56.93;;
5710;SDS011;61291;52.524;13.422;2023-05-07T10:29:04;65.67;;;61.33;;
5710;SDS011;61291;52.524;13.422;2023-05-07T10:31:44;60.47;;;56.57;;
5710;SDS011;61291;52.524;13.422;2023-05-07T10:34:37;64.00;;;59.90;;
5710;SDS011;61291;52.524;13.422;2023-05-07T10:37:06;60.40;;;56.40;;
5710;SDS011;61291;52.524;13.422;2023-05-07T10:39:34;58.03;;;53.60;;
5710;SDS011;61291;52.524;13.422;2023-05-07T10:42:09;61.07;;;56.50;;
5710;SDS011;61291;52.524;13.422;2023-05-07T10:44:36;64.30;;;59.90;;
5710;SDS011;61291;52.524;13.422;2023-05-07T10:47:09;63.13;;;58.60;;
5710;SDS011;61291;52.524;13.422;2023-05-07T10:49:37;67.20;;;62.37;;
5710;SDS011;61291;52.524;13.422;2023-05-07T10:52:15;76.63;;;71.53;;
5710;SDS011;61291;52.524;13.422;2023-05-07T10:54:46;63.97;;;59.53;;
5710;SDS011;61291;52.524;13.422;2023-05-07T10:57:32;66.03;;;61.33;;
5710;SDS011;61291;52.524;13.422;2023-05-07T11:00:01;67.22;;;62.63;;
5710;SDS011;61291;52.524;13.422;2023-05-07T11:05:30;70.87;;;65.97;;
5710;SDS011;61291;52.524;13.422;2023-05-07T11:07:57;85.57;;;78.30;;
5710;SDS011;61291;52.524;13.422;2023-05-07T11:13:12;71.47;;;66.37;;
5710;SDS011;61291;52.524;13.422;2023-05-07T11:15:38;69.43;;;64.13;;
5710;SDS011;61291;52.524;13.422;2023-05-07T11:18:06;66.87;;;62.50;;
5710;SDS011;61291;52.524;13.422;2023-05-07T11:26:00;64.70;;;60.40;;
5710;SDS011;61291;52.524;13.422;2023-05-07T11:28:39;67.77;;;63.37;;
5710;SDS011;61291;52.524;13.422;2023-05-07T11:31:08;62.20;;;57.90;;
5710;SDS011;61291;52.524;13.422;2023-05-07T11:33:35;65.40;;;60.90;;
5710;SDS011;61291;52.524;13.422;2023-05-07T11:36:02;70.13;;;65.32;;
5710;SDS011;61291;52.524;13.422;2023-05-07T11:38:29;62.90;;;58.60;;
5710;SDS011;61291;52.524;13.422;2023-05-07T11:40:59;61.37;;;57.50;;
5710;SDS011;61291;52.524;13.422;2023-05-07T11:43:25;60.73;;;56.73;;
5710;SDS011;61291;52.524;13.422;2023-05-07T11:45:54;54.90;;;51.20;;
5710;SDS011;61291;52.524;13.422;2023-05-07T11:48:32;65.60;;;61.20;;
5710;SDS011;61291;52.524;13.422;2023-05-07T11:53:26;61.47;;;57.47;;
5710;SDS011;61291;52.524;13.422;2023-05-07T11:55:53;60.47;;;56.17;;
5710;SDS011;61291;52.524;13.422;2023-05-07T11:58:21;59.00;;;55.10;;
5710;SDS011;61291;52.524;13.422;2023-05-07T12:00:48;64.90;;;60.40;;
5710;SDS011;61291;52.524;13.422;2023-05-07T12:03:17;66.80;;;62.03;;
5710;SDS011;61291;52.524;13.422;2023-05-07T12:05:44;65.03;;;60.63;;
5710;SDS011;61291;52.524;13.422;2023-05-07T12:08:16;60.27;;;56.47;;
5710;SDS011;61291;52.524;13.422;2023-05-07T12:10:43;64.03;;;59.90;;
5710;SDS011;61291;52.524;13.422;2023-05-07T12:13:19;59.53;;;55.63;;
5710;SDS011;61291;52.524;13.422;2023-05-07T12:15:50;68.87;;;64.17;;
5710;SDS011;61291;52.524;13.422;2023-05-07T12:18:16;60.00;;;56.10;;
5710;SDS011;61291;52.524;13.422;2023-05-07T12:20:42;62.77;;;58.47;;
5710;SDS011;61291;52.524;13.422;2023-05-07T12:23:08;59.80;;;55.97;;
5710;SDS011;61291;52.524;13.422;2023-05-07T12:25:37;61.47;;;57.53;;
5710;SDS011;61291;52.524;13.422;2023-05-07T12:28:04;61.30;;;57.20;;
5710;SDS011;61291;52.524;13.422;2023-05-07T12:30:31;61.47;;;57.37;;
5710;SDS011;61291;52.524;13.422;2023-05-07T12:33:03;64.73;;;60.47;;
5710;SDS011;61291;52.524;13.422;2023-05-07T12:35:29;61.87;;;57.67;;
5710;SDS011;61291;52.524;13.422;2023-05-07T12:37:56;72.07;;;67.03;;
5710;SDS011;61291;52.524;13.422;2023-05-07T12:40:24;70.47;;;65.73;;
5710;SDS011;61291;52.524;13.422;2023-05-07T12:42:52;72.70;;;68.03;;
5710;SDS011;61291;52.524;13.422;2023-05-07T12:45:19;59.60;;;55.90;;
5710;SDS011;61291;52.524;13.422;2023-05-07T12:47:45;63.63;;;59.63;;
5710;SDS011;61291;52.524;13.422;2023-05-07T12:50:11;69.90;;;65.20;;
5710;SDS011;61291;52.524;13.422;2023-05-07T12:52:38;69.80;;;64.80;;
5710;SDS011;61291;52.524;13.422;2023-05-07T12:55:05;63.87;;;59.77;;
5710;SDS011;61291;52.524;13.422;2023-05-07T12:57:39;61.37;;;57.50;;
5710;SDS011;61291;52.524;13.422;2023-05-07T13:00:05;61.47;;;57.43;;
5710;SDS011;61291;52.524;13.422;2023-05-07T13:02:32;63.33;;;59.33;;
5710;SDS011;61291;52.524;13.422;2023-05-07T13:04:59;62.60;;;58.20;;
5710;SDS011;61291;52.524;13.422;2023-05-07T13:07:25;65.33;;;61.03;;
5710;SDS011;61291;52.524;13.422;2023-05-07T13:09:50;65.40;;;60.90;;
5710;SDS011;61291;52.524;13.422;2023-05-07T13:12:15;65.27;;;60.30;;
5710;SDS011;61291;52.524;13.422;2023-05-07T13:14:41;64.00;;;59.60;;
5710;SDS011;61291;52.524;13.422;2023-05-07T13:17:06;65.27;;;60.83;;
5710;SDS011;61291;52.524;13.422;2023-05-07T13:19:32;66.60;;;61.90;;
5710;SDS011;61291;52.524;13.422;2023-05-07T13:21:58;62.40;;;58.10;;
5710;SDS011;61291;52.524;13.422;2023-05-07T13:24:23;61.03;;;57.03;;
5710;SDS011;61291;52.524;13.422;2023-05-07T13:26:49;57.25;;;53.55;;
5710;SDS011;61291;52.524;13.422;2023-05-07T13:29:15;64.63;;;60.57;;
5710;SDS011;61291;52.524;13.422;2023-05-07T13:31:40;65.30;;;61.00;;
5710;SDS011;61291;52.524;13.422;2023-05-07T13:34:08;57.77;;;54.07;;
5710;SDS011;61291;52.524;13.422;2023-05-07T13:36:34;60.93;;;57.23;;
5710;SDS011;61291;52.524;13.422;2023-05-07T13:39:02;57.70;;;54.00;;
5710;SDS011;61291;52.524;13.422;2023-05-07T13:41:28;57.90;;;54.20;;
5710;SDS011;61291;52.524;13.422;2023-05-07T13:43:54;57.17;;;53.53;;
5710;SDS011;61291;52.524;13.422;2023-05-07T13:46:20;65.23;;;60.90;;
5710;SDS011;61291;52.524;13.422;2023-05-07T13:48:46;65.60;;;61.30;;
5710;SDS011;61291;52.524;13.422;2023-05-07T13:51:12;59.70;;;55.90;;
5710;SDS011;61291;52.524;13.422;2023-05-07T13:53:37;57.23;;;53.83;;
5710;SDS011;61291;52.524;13.422;2023-05-07T13:56:03;57.50;;;54.00;;
5710;SDS011;61291;52.524;13.422;2023-05-07T13:58:29;58.87;;;55.20;;
5710;SDS011;61291;52.524;13.422;2023-05-07T14:00:55;60.37;;;56.40;;
5710;SDS011;61291;52.524;13.422;2023-05-07T14:03:21;65.17;;;61.17;;
5710;SDS011;61291;52.524;13.422;2023-05-07T14:05:46;61.10;;;57.43;;
5710;SDS011;61291;52.524;13.422;2023-05-07T14:08:12;64.30;;;60.30;;
5710;SDS011;61291;52.524;13.422;2023-05-07T14:10:38;56.35;;;52.95;;
5710;SDS011;61291;52.524;13.422;2023-05-07T14:13:04;68.10;;;63.70;;
5710;SDS011;61291;52.524;13.422;2023-05-07T14:15:30;67.57;;;63.17;;
5710;SDS011;61291;52.524;13.422;2023-05-07T14:17:57;62.40;;;58.20;;
5710;SDS011;61291;52.524;13.422;2023-05-07T14:20:24;66.70;;;62.33;;
5710;SDS011;61291;52.524;13.422;2023-05-07T14:22:49;65.77;;;61.57;;
5710;SDS011;61291;52.524;13.422;2023-05-07T14:25:15;66.70;;;62.20;;
5710;SDS011;61291;52.524;13.422;2023-05-07T14:27:41;62.73;;;58.80;;
5710;SDS011;61291;52.524;13.422;2023-05-07T14:30:06;61.03;;;57.33;;
5710;SDS011;61291;52.524;13.422;2023-05-07T14:32:33;66.13;;;62.13;;